Time;durP1;ratioP1;P1;durP2;ratioP2;P2;SDS_P1;SDS_P2;PMS_P1;PMS_P2;Temp;Humidity;BMP_temperature;BMP_pressure;BME280_temperature;BME280_humidity;BME280_pressure;Samples;Min_cycle;Max_cycle;Signal;HPM_P1;HPM_P2
2022/06/09 00:01:45;;;;;;;;;;;;;;;20.65;57.86;100184.81;7403083;19;1595;-43
2022/06/09 00:04:25;;;;;;;;;;;;;;;20.62;57.82;100198.56;7403478;19;1865;-43
2022/06/09 00:07:15;;;;;;;;;;;;;;;20.56;57.82;100185.72;7406482;19;1841;-43
2022/06/09 00:09:49;;;;;;;;;;;;;;;20.61;57.63;100170.00;7403319;19;2036;-43
2022/06/09 00:12:22;;;;;;;;;;;;;;;20.59;57.54;100180.09;7406851;19;983;-43
2022/06/09 00:14:56;;;;;;;;;;;;;;;20.57;57.79;100183.88;7404488;19;1683;-43
2022/06/09 00:17:25;;;;;;;;;;;;;;;20.44;58.12;100162.84;7405591;19;1672;-43
2022/06/09 00:20:00;;;;;;;;;;;;;;;20.34;58.34;100168.31;7405692;19;1800;-43
2022/06/09 00:22:28;;;;;;;;;;;;;;;20.49;57.99;100168.56;7404898;19;1921;-43
2022/06/09 00:25:02;;;;;;;;;;;;;;;20.63;58.06;100157.25;7403609;19;1847;-43
2022/06/09 00:27:32;;;;;;;;;;;;;;;20.55;57.99;100159.88;7402066;19;1015;-43
2022/06/09 00:30:02;;;;;;;;;;;;;;;20.61;58.14;100164.66;7404514;19;1624;-43
2022/06/09 00:32:32;;;;;;;;;;;;;;;20.59;57.78;100158.59;7405297;19;1626;-43
2022/06/09 00:35:05;;;;;;;;;;;;;;;20.56;57.97;100172.28;7404135;19;1832;-43
2022/06/09 00:37:36;;;;;;;;;;;;;;;20.54;57.72;100160.88;7403798;19;1631;-43
2022/06/09 00:40:05;;;;;;;;;;;;;;;20.59;57.95;100165.78;7404817;19;1652;-43
2022/06/09 00:42:40;;;;;;;;;;;;;;;20.61;58.00;100163.78;7404365;19;1047;-43
2022/06/09 00:45:28;;;;;;;;;;;;;;;20.55;57.74;100159.88;7403337;19;1900;-43
2022/06/09 00:48:10;;;;;;;;;;;;;;;20.55;57.68;100149.13;7405006;19;1701;-43
2022/06/09 00:50:44;;;;;;;;;;;;;;;20.46;57.68;100153.59;7404345;19;976;-43
2022/06/09 00:53:23;;;;;;;;;;;;;;;20.47;57.89;100146.38;7404948;19;2067;-43
2022/06/09 00:55:58;;;;;;;;;;;;;;;20.60;57.74;100159.41;7403171;19;1939;-43
2022/06/09 00:58:27;;;;;;;;;;;;;;;20.54;57.89;100163.56;7402063;19;1463;-44
2022/06/09 01:01:01;;;;;;;;;;;;;;;20.59;57.80;100166.66;7404667;19;1466;-43
2022/06/09 01:03:32;;;;;;;;;;;;;;;20.56;57.90;100158.88;7404850;19;1761;-43
2022/06/09 01:06:09;;;;;;;;;;;;;;;20.54;57.81;100174.31;7403065;19;1919;-43
2022/06/09 01:08:45;;;;;;;;;;;;;;;20.49;57.81;100176.59;7403931;19;1897;-43
2022/06/09 01:11:19;;;;;;;;;;;;;;;20.46;58.26;100168.88;7401426;19;1766;-43
2022/06/09 01:13:52;;;;;;;;;;;;;;;20.47;58.34;100167.88;7403141;19;1700;-43
2022/06/09 01:16:27;;;;;;;;;;;;;;;20.46;58.03;100150.94;7402425;19;1835;-44
2022/06/09 01:19:14;;;;;;;;;;;;;;;20.49;58.46;100156.97;7401133;19;1959;-43
2022/06/09 01:22:04;;;;;;;;;;;;;;;20.36;58.74;100149.38;7403404;19;1913;-43
2022/06/09 01:25:00;;;;;;;;;;;;;;;20.54;58.46;100143.91;7402709;19;2811;-43
2022/06/09 01:27:42;;;;;;;;;;;;;;;20.45;58.97;100146.56;7400272;19;954;-43
2022/06/09 01:30:20;;;;;;;;;;;;;;;20.46;58.95;100150.94;7403709;19;2034;-43
2022/06/09 01:33:02;;;;;;;;;;;;;;;20.51;58.61;100145.06;7403062;19;1899;-43
2022/06/09 01:35:42;;;;;;;;;;;;;;;20.50;58.72;100166.72;7403136;19;2043;-43
2022/06/09 01:38:17;;;;;;;;;;;;;;;20.50;58.71;100167.56;7402807;19;1803;-44
2022/06/09 01:40:47;;;;;;;;;;;;;;;20.54;58.46;100168.09;7402595;19;1702;-43
2022/06/09 01:43:24;;;;;;;;;;;;;;;20.47;58.47;100157.13;7399368;19;1862;-43
2022/06/09 01:46:04;;;;;;;;;;;;;;;20.56;58.16;100161.56;7401843;19;1845;-43
2022/06/09 01:48:43;;;;;;;;;;;;;;;20.61;58.12;100175.38;7402539;19;1615;-43
2022/06/09 01:51:16;;;;;;;;;;;;;;;20.54;58.60;100190.41;7402441;19;1496;-43
2022/06/09 01:54:08;;;;;;;;;;;;;;;20.56;58.17;100183.03;7403893;19;953;-43
2022/06/09 01:56:43;;;;;;;;;;;;;;;20.56;58.57;100174.97;7401542;19;1111;-43
2022/06/09 01:59:15;;;;;;;;;;;;;;;20.60;58.46;100179.06;7400392;19;2253;-43
2022/06/09 02:01:46;;;;;;;;;;;;;;;20.46;58.69;100177.78;7396552;19;3290;-56
2022/06/09 02:04:20;;;;;;;;;;;;;;;20.50;59.01;100189.06;7401521;19;1371;-56
2022/06/09 02:06:49;;;;;;;;;;;;;;;20.51;58.77;100189.88;7403386;19;1845;-55
2022/06/09 02:09:18;;;;;;;;;;;;;;;20.51;58.76;100179.97;7404006;19;1634;-55
2022/06/09 02:11:51;;;;;;;;;;;;;;;20.59;58.70;100188.13;7402268;19;1505;-55
2022/06/09 02:14:20;;;;;;;;;;;;;;;20.48;58.65;100187.53;7403212;19;1507;-55
2022/06/09 02:16:49;;;;;;;;;;;;;;;20.49;58.92;100189.22;7405211;19;1647;-55
2022/06/09 02:19:21;;;;;;;;;;;;;;;20.48;58.73;100193.75;7405570;19;1324;-56
2022/06/09 02:21:50;;;;;;;;;;;;;;;20.49;58.77;100189.22;7404452;19;1684;-55
2022/06/09 02:24:18;;;;;;;;;;;;;;;20.58;58.52;100196.31;7411550;19;1339;-56
2022/06/09 02:26:47;;;;;;;;;;;;;;;20.54;58.48;100211.06;7410646;19;1851;-56
2022/06/09 02:29:15;;;;;;;;;;;;;;;20.50;58.67;100196.28;7409666;19;1482;-56
2022/06/09 02:31:44;;;;;;;;;;;;;;;20.44;58.76;100195.06;7410682;19;1431;-56
2022/06/09 02:34:13;;;;;;;;;;;;;;;20.45;58.87;100194.91;7412671;19;1352;-55
2022/06/09 02:36:44;;;;;;;;;;;;;;;20.58;58.56;100202.53;7411917;19;1300;-55
2022/06/09 02:39:12;;;;;;;;;;;;;;;20.63;58.56;100196.69;7412054;19;1524;-56
2022/06/09 02:41:41;;;;;;;;;;;;;;;20.64;58.72;100209.13;7413481;19;988;-55
2022/06/09 02:44:09;;;;;;;;;;;;;;;20.63;58.93;100204.75;7410073;19;1632;-55
2022/06/09 02:46:38;;;;;;;;;;;;;;;20.48;59.02;100191.06;7408047;19;1852;-56
2022/06/09 02:49:06;;;;;;;;;;;;;;;20.50;59.07;100182.84;7410965;19;1611;-55
2022/06/09 02:51:36;;;;;;;;;;;;;;;20.43;59.03;100188.00;7411644;19;1587;-55
2022/06/09 02:54:08;;;;;;;;;;;;;;;20.48;59.01;100209.03;7409289;19;1849;-56
2022/06/09 02:56:37;;;;;;;;;;;;;;;20.57;58.80;100189.25;7410362;19;1611;-56
2022/06/09 02:59:05;;;;;;;;;;;;;;;20.59;58.73;100204.25;7411266;19;1406;-55
2022/06/09 03:01:34;;;;;;;;;;;;;;;20.53;59.09;100202.19;7409514;19;1611;-56
2022/06/09 03:04:02;;;;;;;;;;;;;;;20.46;58.88;100198.44;7411603;19;1556;-55
2022/06/09 03:06:31;;;;;;;;;;;;;;;20.54;58.88;100217.28;7408859;19;1850;-55
2022/06/09 03:09:00;;;;;;;;;;;;;;;20.56;58.93;100209.91;7412550;19;971;-55
2022/06/09 03:11:31;;;;;;;;;;;;;;;20.47;59.38;100197.41;7409053;19;1749;-56
2022/06/09 03:13:59;;;;;;;;;;;;;;;20.44;59.56;100205.81;7408286;19;1651;-56
2022/06/09 03:16:27;;;;;;;;;;;;;;;20.21;59.89;100190.22;7410740;19;1727;-56
2022/06/09 03:18:56;;;;;;;;;;;;;;;20.23;60.03;100193.59;7410939;19;1537;-56
2022/06/09 03:21:24;;;;;;;;;;;;;;;20.35;59.92;100191.50;7411206;19;1474;-55
2022/06/09 03:23:52;;;;;;;;;;;;;;;20.41;59.32;100184.63;7410988;19;1417;-56
2022/06/09 03:26:22;;;;;;;;;;;;;;;20.48;59.23;100172.25;7410290;19;1841;-56
2022/06/09 03:28:53;;;;;;;;;;;;;;;20.53;59.61;100182.50;7407759;19;1544;-55
2022/06/09 03:31:22;;;;;;;;;;;;;;;20.56;58.89;100183.03;7410746;19;1596;-55
2022/06/09 03:33:50;;;;;;;;;;;;;;;20.57;59.01;100174.00;7408868;19;1528;-55
2022/06/09 03:36:19;;;;;;;;;;;;;;;20.54;59.09;100176.16;7409836;19;1515;-55
2022/06/09 03:38:47;;;;;;;;;;;;;;;20.58;59.02;100193.63;7411004;19;975;-56
2022/06/09 03:41:16;;;;;;;;;;;;;;;20.51;58.98;100179.16;7411653;19;967;-55
2022/06/09 03:43:44;;;;;;;;;;;;;;;20.65;59.13;100171.38;7406912;19;1639;-56
2022/06/09 03:46:15;;;;;;;;;;;;;;;20.75;58.72;100179.31;7408369;19;1855;-56
2022/06/09 03:48:44;;;;;;;;;;;;;;;20.70;58.82;100183.47;7410320;19;1513;-56
2022/06/09 03:51:13;;;;;;;;;;;;;;;20.73;58.99;100183.16;7410193;19;1580;-56
2022/06/09 03:53:42;;;;;;;;;;;;;;;20.67;59.14;100181.94;7411447;19;971;-55
2022/06/09 03:56:14;;;;;;;;;;;;;;;20.59;59.24;100189.97;7409822;19;1670;-55
2022/06/09 03:58:43;;;;;;;;;;;;;;;20.63;59.25;100173.38;7406217;19;1766;-56
2022/06/09 04:01:13;;;;;;;;;;;;;;;20.64;59.24;100182.28;7408014;19;1352;-55
2022/06/09 04:03:44;;;;;;;;;;;;;;;20.62;59.36;100171.69;7409534;19;1386;-55
2022/06/09 04:06:14;;;;;;;;;;;;;;;20.86;59.45;100168.25;7408193;19;1866;-57
2022/06/09 04:08:43;;;;;;;;;;;;;;;21.03;59.07;100174.53;7409608;19;1746;-55
2022/06/09 04:11:12;;;;;;;;;;;;;;;21.13;58.73;100184.28;7407146;19;1690;-55
2022/06/09 04:13:40;;;;;;;;;;;;;;;21.15;58.83;100185.84;7405859;19;1679;-55
2022/06/09 04:16:23;;;;;;;;;;;;;;;21.18;59.00;100176.59;7408144;19;1341;-55
2022/06/09 04:18:53;;;;;;;;;;;;;;;21.18;58.86;100188.19;7408386;19;1346;-55
2022/06/09 04:21:23;;;;;;;;;;;;;;;21.18;59.03;100188.19;7409087;19;1619;-57
2022/06/09 04:23:51;;;;;;;;;;;;;;;21.18;59.26;100184.66;7409249;19;1338;-55
2022/06/09 04:26:21;;;;;;;;;;;;;;;21.12;59.42;100188.00;7407448;19;1876;-58
2022/06/09 04:28:50;;;;;;;;;;;;;;;21.27;59.30;100172.94;7405847;19;1687;-55
2022/06/09 04:31:18;;;;;;;;;;;;;;;21.27;59.29;100175.63;7408653;19;1611;-56
2022/06/09 04:33:47;;;;;;;;;;;;;;;21.26;59.58;100180.13;7407024;19;1753;-54
2022/06/09 04:36:19;;;;;;;;;;;;;;;21.29;59.09;100172.75;7408018;19;1336;-55
2022/06/09 04:38:48;;;;;;;;;;;;;;;21.38;58.97;100159.16;7408412;19;1123;-57
2022/06/09 04:41:17;;;;;;;;;;;;;;;21.44;59.72;100161.19;7408188;19;1163;-57
2022/06/09 04:43:47;;;;;;;;;;;;;;;21.56;59.59;100163.56;7405350;19;1671;-58
2022/06/09 04:46:16;;;;;;;;;;;;;;;21.54;58.46;100174.50;7406491;19;1843;-57
2022/06/09 04:48:44;;;;;;;;;;;;;;;21.60;58.75;100162.22;7407145;19;1348;-57
2022/06/09 04:51:14;;;;;;;;;;;;;;;21.64;59.08;100169.78;7407558;19;1759;-54
2022/06/09 04:53:45;;;;;;;;;;;;;;;21.57;59.45;100165.28;7408092;19;987;-54
2022/06/09 04:56:14;;;;;;;;;;;;;;;21.61;59.46;100175.53;7407742;19;1791;-54
2022/06/09 04:58:43;;;;;;;;;;;;;;;21.62;59.29;100162.91;7403696;19;1482;-55
2022/06/09 05:01:17;;;;;;;;;;;;;;;21.64;59.53;100174.34;7402327;19;1524;-54
2022/06/09 05:03:45;;;;;;;;;;;;;;;21.57;59.62;100167.97;7403707;19;1362;-54
2022/06/09 05:06:14;;;;;;;;;;;;;;;21.59;59.36;100184.78;7402683;19;1854;-54
2022/06/09 05:08:44;;;;;;;;;;;;;;;21.60;59.16;100181.91;7402266;19;1742;-54
2022/06/09 05:11:13;;;;;;;;;;;;;;;21.69;58.80;100201.59;7401011;19;1682;-54
2022/06/09 05:13:41;;;;;;;;;;;;;;;21.70;58.94;100197.88;7398588;19;1451;-55
2022/06/09 05:16:10;;;;;;;;;;;;;;;21.69;59.14;100192.69;7405654;19;1524;-54
2022/06/09 05:18:40;;;;;;;;;;;;;;;21.64;59.08;100199.38;7406661;19;1366;-54
2022/06/09 05:21:09;;;;;;;;;;;;;;;21.65;59.07;100197.56;7407870;19;1375;-54
2022/06/09 05:23:38;;;;;;;;;;;;;;;21.77;58.96;100198.06;7407850;19;941;-54
2022/06/09 05:26:09;;;;;;;;;;;;;;;21.81;58.70;100192.19;7406411;19;1869;-54
2022/06/09 05:28:38;;;;;;;;;;;;;;;21.85;58.95;100187.31;7403855;19;1518;-54
2022/06/09 05:31:06;;;;;;;;;;;;;;;21.84;59.06;100197.25;7405493;19;1338;-54
2022/06/09 05:33:34;;;;;;;;;;;;;;;21.98;58.91;100208.31;7405173;19;1272;-55
2022/06/09 05:36:03;;;;;;;;;;;;;;;21.93;59.14;100190.00;7406231;19;1279;-54
2022/06/09 05:46:38;;;;;;;;;;;;;;;22.04;59.46;100183.41;7405395;19;1845;-58
2022/06/09 05:49:08;;;;;;;;;;;;;;;22.16;59.09;100200.06;7404636;19;1359;-55
2022/06/09 05:51:37;;;;;;;;;;;;;;;22.14;58.86;100175.16;7405130;19;1366;-55
2022/06/09 05:54:05;;;;;;;;;;;;;;;22.20;59.25;100183.41;7406047;19;1153;-59
2022/06/09 05:56:36;;;;;;;;;;;;;;;22.15;59.95;100182.25;7404695;19;1377;-55
2022/06/09 05:59:05;;;;;;;;;;;;;;;22.14;59.85;100178.69;7401179;19;1598;-60
2022/06/09 06:01:33;;;;;;;;;;;;;;;22.18;59.38;100188.13;7403299;19;1280;-55
2022/06/09 06:04:01;;;;;;;;;;;;;;;22.15;60.00;100163.38;7405458;19;1299;-54
2022/06/09 06:06:39;;;;;;;;;;;;;;;22.14;59.75;100176.00;7404836;19;1861;-55
2022/06/09 06:09:08;;;;;;;;;;;;;;;22.05;59.79;100163.56;7406713;19;950;-54
2022/06/09 06:11:40;;;;;;;;;;;;;;;22.13;59.84;100184.25;7404342;19;1477;-54
2022/06/09 06:14:08;;;;;;;;;;;;;;;22.13;60.26;100177.03;7403032;19;1565;-54
2022/06/09 06:16:37;;;;;;;;;;;;;;;22.18;60.17;100185.44;7405351;19;1625;-54
2022/06/09 06:19:07;;;;;;;;;;;;;;;22.16;60.18;100184.78;7405445;19;1614;-54
2022/06/09 06:21:35;;;;;;;;;;;;;;;22.15;59.93;100177.69;7405149;19;1599;-54
2022/06/09 06:24:03;;;;;;;;;;;;;;;22.17;60.16;100170.28;7405612;19;1544;-54
2022/06/09 06:26:32;;;;;;;;;;;;;;;22.20;59.75;100179.84;7405307;19;1870;-54
2022/06/09 06:29:03;;;;;;;;;;;;;;;22.18;59.76;100171.97;7401956;19;1643;-54
2022/06/09 06:31:31;;;;;;;;;;;;;;;22.21;60.25;100174.31;7405292;19;1631;-54
2022/06/09 06:34:00;;;;;;;;;;;;;;;22.22;60.10;100172.44;7404967;19;1516;-54
2022/06/09 06:36:30;;;;;;;;;;;;;;;22.23;60.13;100169.59;7404028;19;1623;-54
2022/06/09 06:38:58;;;;;;;;;;;;;;;22.26;60.33;100181.06;7404585;19;1630;-54
2022/06/09 06:41:26;;;;;;;;;;;;;;;22.24;60.55;100167.75;7405296;19;995;-54
2022/06/09 06:43:54;;;;;;;;;;;;;;;22.24;60.61;100163.25;7401345;19;1506;-54
2022/06/09 06:46:25;;;;;;;;;;;;;;;22.24;59.94;100168.63;7403991;19;1843;-54
2022/06/09 06:48:55;;;;;;;;;;;;;;;22.28;59.78;100174.47;7403280;19;1772;-54
2022/06/09 06:51:24;;;;;;;;;;;;;;;22.27;60.10;100170.13;7403917;19;1431;-55
2022/06/09 06:53:52;;;;;;;;;;;;;;;22.29;60.15;100164.56;7403126;19;1438;-54
2022/06/09 06:56:20;;;;;;;;;;;;;;;22.30;60.00;100160.84;7403400;19;1544;-55
2022/06/09 06:58:48;;;;;;;;;;;;;;;22.30;59.90;100163.53;7404152;19;1540;-54
2022/06/09 07:01:17;;;;;;;;;;;;;;;22.32;59.92;100172.28;7403615;19;1796;-54
2022/06/09 07:03:48;;;;;;;;;;;;;;;22.31;60.07;100162.56;7403963;19;1754;-54
2022/06/09 07:06:17;;;;;;;;;;;;;;;22.32;60.19;100157.00;7403484;19;1842;-54
2022/06/09 07:08:45;;;;;;;;;;;;;;;22.34;60.40;100156.81;7405016;19;1671;-55
2022/06/09 07:11:14;;;;;;;;;;;;;;;22.35;59.59;100163.88;7409651;19;1445;-54
2022/06/09 07:13:43;;;;;;;;;;;;;;;22.36;59.97;100162.84;7411029;19;1543;-54
2022/06/09 07:16:12;;;;;;;;;;;;;;;22.35;60.01;100161.19;7410368;19;1587;-54
2022/06/09 07:18:40;;;;;;;;;;;;;;;22.36;59.81;100141.31;7411381;19;1623;-54
2022/06/09 07:21:12;;;;;;;;;;;;;;;22.36;59.76;100139.47;7411658;19;996;-54
2022/06/09 07:23:40;;;;;;;;;;;;;;;22.36;59.96;100144.88;7411589;19;985;-55
2022/06/09 07:26:09;;;;;;;;;;;;;;;22.41;60.14;100155.09;7411257;19;1698;-54
2022/06/09 07:28:37;;;;;;;;;;;;;;;22.41;60.19;100160.50;7404341;19;1846;-54
2022/06/09 07:31:06;;;;;;;;;;;;;;;22.38;60.22;100160.84;7410995;19;1343;-54
2022/06/09 07:33:36;;;;;;;;;;;;;;;22.37;60.17;100148.38;7410486;19;1627;-54
2022/06/09 07:36:06;;;;;;;;;;;;;;;22.43;60.02;100155.78;7411154;19;956;-55
2022/06/09 07:38:37;;;;;;;;;;;;;;;22.42;59.76;100152.25;7410735;19;1635;-54
2022/06/09 07:41:05;;;;;;;;;;;;;;;22.41;59.80;100160.50;7410437;19;1683;-54
2022/06/09 07:43:33;;;;;;;;;;;;;;;22.40;59.79;100145.34;7407114;19;1679;-54
2022/06/09 07:46:02;;;;;;;;;;;;;;;22.44;59.76;100141.28;7410257;19;1532;-54
2022/06/09 07:48:30;;;;;;;;;;;;;;;22.42;59.87;100133.38;7407638;19;1859;-54
2022/06/09 07:50:58;;;;;;;;;;;;;;;22.42;59.72;100132.53;7410610;19;991;-54
2022/06/09 07:53:27;;;;;;;;;;;;;;;22.43;59.87;100137.75;7409490;19;1569;-54
2022/06/09 07:55:58;;;;;;;;;;;;;;;22.41;59.78;100130.88;7409869;19;1647;-54
2022/06/09 07:58:26;;;;;;;;;;;;;;;22.48;60.03;100148.00;7405825;19;1773;-54
2022/06/09 08:00:54;;;;;;;;;;;;;;;22.44;59.97;100146.66;7409210;19;1580;-54
2022/06/09 08:03:24;;;;;;;;;;;;;;;22.53;59.76;100136.72;7408761;19;1526;-54
2022/06/09 08:05:53;;;;;;;;;;;;;;;22.32;60.45;100126.50;7407613;19;1762;-54
2022/06/09 08:08:22;;;;;;;;;;;;;;;21.62;60.75;100147.59;7406046;19;1845;-54
2022/06/09 08:10:51;;;;;;;;;;;;;;;21.30;62.25;100143.00;7407924;19;1472;-54
2022/06/09 08:13:22;;;;;;;;;;;;;;;21.06;62.19;100143.78;7409159;19;1343;-54
2022/06/09 08:15:50;;;;;;;;;;;;;;;20.97;62.62;100144.78;7408470;19;1519;-54
2022/06/09 08:18:19;;;;;;;;;;;;;;;20.92;62.31;100139.88;7409994;19;1113;-54
2022/06/09 08:20:47;;;;;;;;;;;;;;;20.84;62.23;100150.63;7407865;19;1372;-54
2022/06/09 08:23:18;;;;;;;;;;;;;;;20.73;62.52;100138.34;7408913;19;1667;-54
2022/06/09 08:25:47;;;;;;;;;;;;;;;20.66;62.32;100140.81;7407972;19;1806;-55
2022/06/09 08:28:18;;;;;;;;;;;;;;;20.60;62.44;100162.94;7406264;19;1863;-55
2022/06/09 08:30:51;;;;;;;;;;;;;;;20.56;62.11;100156.19;7408809;19;1866;-54
2022/06/09 08:33:19;;;;;;;;;;;;;;;20.56;62.10;100152.66;7409265;19;1031;-54
2022/06/09 08:35:48;;;;;;;;;;;;;;;20.50;62.44;100146.06;7408240;19;1456;-55
2022/06/09 08:38:16;;;;;;;;;;;;;;;20.48;62.28;100155.31;7407433;19;1698;-55
2022/06/09 08:40:49;;;;;;;;;;;;;;;20.40;62.14;100150.72;7407590;19;1746;-55
2022/06/09 08:43:23;;;;;;;;;;;;;;;20.41;61.86;100147.03;7408103;19;1452;-55
2022/06/09 08:45:55;;;;;;;;;;;;;;;20.39;61.97;100149.03;7407658;19;1172;-54
2022/06/09 08:48:25;;;;;;;;;;;;;;;20.71;61.41;100142.16;7406824;19;1853;-54
2022/06/09 08:50:58;;;;;;;;;;;;;;;21.16;60.35;100143.66;7408076;19;1717;-55
2022/06/09 08:53:28;;;;;;;;;;;;;;;21.50;59.71;100131.97;7403806;19;1439;-55
2022/06/09 08:55:58;;;;;;;;;;;;;;;21.69;59.15;100139.72;7407823;19;1235;-55
2022/06/09 08:58:28;;;;;;;;;;;;;;;21.82;59.26;100141.88;7407821;19;1324;-55
2022/06/09 09:01:02;;;;;;;;;;;;;;;21.87;59.11;100128.75;7407140;19;1770;-55
2022/06/09 09:03:33;;;;;;;;;;;;;;;21.98;59.06;100130.25;7406885;19;1765;-59
2022/06/09 09:06:04;;;;;;;;;;;;;;;22.11;58.90;100140.50;7406342;19;1659;-57
2022/06/09 09:08:32;;;;;;;;;;;;;;;22.09;59.33;100126.38;7405401;19;1849;-57
2022/06/09 09:11:10;;;;;;;;;;;;;;;22.11;59.34;100117.09;7406487;19;1460;-56
2022/06/09 09:13:44;;;;;;;;;;;;;;;22.13;59.43;100112.38;7407356;19;1600;-56
2022/06/09 09:16:20;;;;;;;;;;;;;;;22.13;59.59;100109.69;7405962;19;1776;-56
2022/06/09 09:18:53;;;;;;;;;;;;;;;22.14;59.61;100113.22;7406350;19;1340;-56
2022/06/09 09:21:27;;;;;;;;;;;;;;;22.17;60.33;100094.88;7406865;19;1308;-56
2022/06/09 09:24:01;;;;;;;;;;;;;;;22.17;59.85;100119.13;7407361;19;1568;-56
2022/06/09 09:26:31;;;;;;;;;;;;;;;22.13;60.43;100101.63;7407742;19;1378;-58
2022/06/09 09:29:04;;;;;;;;;;;;;;;22.24;60.29;100113.91;7404069;19;1861;-58
2022/06/09 09:31:42;;;;;;;;;;;;;;;22.24;60.72;100104.00;7406340;19;1275;-58
2022/06/09 09:34:16;;;;;;;;;;;;;;;22.24;61.07;100098.59;7405294;19;1414;-59
2022/06/09 09:36:46;;;;;;;;;;;;;;;22.28;60.99;100092.84;7405165;19;1380;-60
2022/06/09 09:39:17;;;;;;;;;;;;;;;22.34;60.93;100092.16;7405000;19;1268;-57
2022/06/09 09:41:45;;;;;;;;;;;;;;;22.35;60.77;100083.06;7407064;19;1314;-60
2022/06/09 09:44:20;;;;;;;;;;;;;;;22.32;60.91;100095.03;7405137;19;1517;-58
2022/06/09 09:46:55;;;;;;;;;;;;;;;22.35;60.71;100093.84;7404652;19;1427;-57
2022/06/09 09:49:25;;;;;;;;;;;;;;;22.37;60.63;100091.81;7403195;19;1851;-57
2022/06/09 09:51:53;;;;;;;;;;;;;;;22.46;61.29;100088.06;7405686;19;1326;-57
2022/06/09 09:54:21;;;;;;;;;;;;;;;;;;7405164;19;1311;-57
2022/06/09 09:56:50;;;;;;;;;;;;;;;22.37;61.06;100078.34;7405826;19;1584;-57
2022/06/09 09:59:25;;;;;;;;;;;;;;;22.32;61.37;100078.88;7403676;19;1752;-57
2022/06/09 10:10:11;;;;;;;;;;;;;;;22.38;62.06;100071.94;7405226;19;1466;-56
2022/06/09 10:12:39;;;;;;;;;;;;;;;22.34;61.74;100058.00;7404833;19;1319;-56
2022/06/09 10:15:15;;;;;;;;;;;;;;;22.40;61.83;100061.81;7403931;19;1469;-56
2022/06/09 10:17:52;;;;;;;;;;;;;;;22.38;61.90;100062.03;7404913;19;1584;-56
2022/06/09 10:20:23;;;;;;;;;;;;;;;22.35;61.94;100053.44;7405697;19;1544;-56
2022/06/09 10:22:59;;;;;;;;;;;;;;;22.34;62.15;100049.91;7404661;19;1603;-56
2022/06/09 10:25:30;;;;;;;;;;;;;;;22.33;61.66;100058.16;7404240;19;1408;-56
2022/06/09 10:28:02;;;;;;;;;;;;;;;22.33;61.91;100063.56;7403710;19;1849;-54
2022/06/09 10:30:32;;;;;;;;;;;;;;;22.32;61.92;100064.56;7405145;19;1566;-55
2022/06/09 10:33:07;;;;;;;;;;;;;;;22.29;61.67;100062.22;7402893;19;1655;-55
2022/06/09 10:35:38;;;;;;;;;;;;;;;22.27;61.81;100066.94;7404802;19;1745;-55
2022/06/09 10:38:13;;;;;;;;;;;;;;;22.29;61.99;100048.75;7404327;19;1488;-55
2022/06/09 10:40:44;;;;;;;;;;;;;;;22.27;61.74;100043.53;7405171;19;1603;-55
2022/06/09 10:43:19;;;;;;;;;;;;;;;22.28;61.81;100030.91;7404366;19;1248;-55
2022/06/09 10:45:52;;;;;;;;;;;;;;;22.27;61.74;100034.63;7413429;19;944;-55
2022/06/09 10:56:41;;;;;;;;;;;;;;;22.27;61.95;100053.47;7413244;19;739;-55
2022/06/09 10:59:12;;;;;;;;;;;;;;;22.33;61.51;100052.78;7409170;19;1470;-55
2022/06/09 11:01:41;;;;;;;;;;;;;;;22.30;61.75;100031.56;7407654;19;1500;-55
2022/06/09 11:04:16;;;;;;;;;;;;;;;22.29;61.51;100029.91;7411464;19;1536;-55
2022/06/09 11:06:59;;;;;;;;;;;;;;;22.26;61.79;100041.00;7411592;19;1607;-55
2022/06/09 11:09:34;;;;;;;;;;;;;;;22.24;61.51;100038.47;7408897;19;1945;-55
2022/06/09 11:12:07;;;;;;;;;;;;;;;22.22;61.84;100024.31;7411463;19;1249;-55
2022/06/09 11:14:43;;;;;;;;;;;;;;;22.27;61.90;100026.53;7409421;19;1560;-55
2022/06/09 11:17:20;;;;;;;;;;;;;;;22.29;61.81;100006.50;7410592;19;1468;-55
2022/06/09 11:19:57;;;;;;;;;;;;;;;22.28;62.01;100012.06;7410137;19;1614;-55
2022/06/09 11:22:30;;;;;;;;;;;;;;;22.29;62.09;100003.81;7410070;19;1599;-55
2022/06/09 11:25:04;;;;;;;;;;;;;;;22.31;61.94;100009.03;7408983;19;1272;-54
2022/06/09 11:27:39;;;;;;;;;;;;;;;22.28;61.70;99999.41;7409925;19;1853;-55
2022/06/09 11:30:17;;;;;;;;;;;;;;;22.31;61.76;99974.84;7409383;19;1659;-54
2022/06/09 11:32:49;;;;;;;;;;;;;;;22.31;61.82;99974.84;7410956;19;1494;-55
2022/06/09 11:35:23;;;;;;;;;;;;;;;22.29;62.11;99982.25;7410592;19;1623;-55
2022/06/09 11:38:00;;;;;;;;;;;;;;;22.30;62.22;99977.69;7410696;19;1501;-55
2022/06/09 11:40:35;;;;;;;;;;;;;;;22.30;61.99;99985.78;7409049;19;1618;-55
2022/06/09 11:43:12;;;;;;;;;;;;;;;22.32;61.71;99986.44;7410613;19;1315;-55
2022/06/09 11:45:44;;;;;;;;;;;;;;;22.33;62.01;99988.97;7411041;19;1182;-55
2022/06/09 11:48:15;;;;;;;;;;;;;;;22.30;62.03;99983.91;7409974;19;1864;-54
2022/06/09 11:50:47;;;;;;;;;;;;;;;22.28;61.86;99974.34;7409791;19;1470;-55
2022/06/09 11:53:19;;;;;;;;;;;;;;;22.29;61.78;99987.63;7409169;19;1686;-55
2022/06/09 11:56:03;;;;;;;;;;;;;;;22.31;62.02;99974.84;7406923;19;1507;-55
2022/06/09 11:58:45;;;;;;;;;;;;;;;22.31;61.91;99974.00;7409817;19;1415;-54
2022/06/09 12:01:24;;;;;;;;;;;;;;;22.30;61.84;99975.00;7407214;19;1291;-55
2022/06/09 12:04:09;;;;;;;;;;;;;;;22.31;61.71;99974.00;7408615;19;1316;-55
2022/06/09 12:06:46;;;;;;;;;;;;;;;22.29;62.08;99968.78;7409495;19;1529;-55
2022/06/09 12:09:22;;;;;;;;;;;;;;;22.32;62.06;99963.06;7407730;19;1850;-54
2022/06/09 12:11:52;;;;;;;;;;;;;;;22.34;62.16;99968.25;7407555;19;1381;-55
2022/06/09 12:14:24;;;;;;;;;;;;;;;22.32;62.06;99959.50;7409281;19;1501;-54
2022/06/09 12:17:04;;;;;;;;;;;;;;;22.33;61.81;99967.41;7407743;19;1598;-55
2022/06/09 12:19:35;;;;;;;;;;;;;;;22.30;62.24;99965.06;7409381;19;1312;-55
2022/06/09 12:22:18;;;;;;;;;;;;;;;22.33;62.17;99964.72;7407703;19;1602;-55
2022/06/09 12:25:02;;;;;;;;;;;;;;;22.34;61.93;99969.09;7407657;19;2609;-55
2022/06/09 12:27:30;;;;;;;;;;;;;;;;;;7409423;19;1237;-55
2022/06/09 12:30:21;;;;;;;;;;;;;;;22.37;61.93;99965.22;7405319;19;1853;-55
2022/06/09 12:32:50;;;;;;;;;;;;;;;22.34;61.94;99963.72;7408611;19;1718;-55
2022/06/09 12:35:28;;;;;;;;;;;;;;;22.35;62.29;99951.09;7408802;19;1603;-55
2022/06/09 12:37:59;;;;;;;;;;;;;;;22.39;62.14;99966.69;7408091;19;1579;-55
2022/06/09 12:40:31;;;;;;;;;;;;;;;22.39;62.07;99955.09;7407349;19;1618;-55
2022/06/09 12:43:01;;;;;;;;;;;;;;;22.42;61.91;99970.88;7409007;19;992;-55
2022/06/09 12:45:34;;;;;;;;;;;;;;;22.37;62.14;99949.06;7408143;19;1734;-54
2022/06/09 12:48:04;;;;;;;;;;;;;;;22.34;62.65;99952.09;7407369;19;1853;-55
2022/06/09 12:50:38;;;;;;;;;;;;;;;22.37;62.46;99951.75;7407910;19;1650;-55
2022/06/09 12:53:08;;;;;;;;;;;;;;;22.38;62.37;99959.66;7406733;19;1729;-55
2022/06/09 12:55:37;;;;;;;;;;;;;;;22.42;62.31;99968.19;7407081;19;1236;-55
2022/06/09 12:58:08;;;;;;;;;;;;;;;22.38;62.07;99964.19;7408320;19;1149;-55
2022/06/09 13:00:40;;;;;;;;;;;;;;;22.41;62.74;99958.44;7407238;19;1331;-54
2022/06/09 13:03:16;;;;;;;;;;;;;;;22.43;62.29;99956.41;7407178;19;1631;-55
2022/06/09 13:05:44;;;;;;;;;;;;;;;22.44;62.53;99961.63;7406381;19;1753;-54
2022/06/09 13:08:18;;;;;;;;;;;;;;;22.42;62.69;99965.50;7405092;19;1845;-57
2022/06/09 13:10:48;;;;;;;;;;;;;;;22.41;62.74;99958.44;7405536;19;1421;-57
2022/06/09 13:13:20;;;;;;;;;;;;;;;22.49;62.74;99950.31;7405936;19;1238;-56
2022/06/09 13:16:00;;;;;;;;;;;;;;;22.44;63.72;99963.47;7407503;19;1148;-56
2022/06/09 13:18:30;;;;;;;;;;;;;;;22.40;63.19;99959.44;7407724;19;956;-55
2022/06/09 13:21:02;;;;;;;;;;;;;;;22.43;63.68;99951.03;7407837;19;1088;-55
2022/06/09 13:23:32;;;;;;;;;;;;;;;22.47;63.18;99957.75;7406747;19;1662;-54
2022/06/09 13:26:01;;;;;;;;;;;;;;;22.50;63.19;99954.69;7407097;19;1702;-56
2022/06/09 13:28:36;;;;;;;;;;;;;;;22.53;62.82;99948.94;7404421;19;1864;-56
2022/06/09 13:31:08;;;;;;;;;;;;;;;22.51;62.92;99948.28;7405802;19;1278;-56
2022/06/09 13:33:49;;;;;;;;;;;;;;;22.56;62.70;99956.69;7405859;19;1332;-55
2022/06/09 13:36:27;;;;;;;;;;;;;;;22.52;62.97;99944.59;7406251;19;1265;-55
2022/06/09 13:38:56;;;;;;;;;;;;;;;22.48;63.24;99950.50;7405870;19;1319;-56